createdAt,value
2017-09-11T00:00:40.452Z,60.50
2017-09-11T00:03:08.194Z,61.00
2017-09-11T00:05:36.651Z,61.40
2017-09-11T00:08:04.323Z,60.50
2017-09-11T00:10:31.973Z,60.60
2017-09-11T00:12:59.632Z,60.80
2017-09-11T00:15:27.245Z,61.00
2017-09-11T00:17:54.869Z,60.90
2017-09-11T00:20:22.531Z,60.70
2017-09-11T00:22:50.271Z,61.00
2017-09-11T00:25:17.953Z,60.80
2017-09-11T00:27:45.618Z,60.70
2017-09-11T00:30:13.276Z,60.60
2017-09-11T00:32:40.943Z,60.80
2017-09-11T00:35:08.680Z,60.70
2017-09-11T00:37:36.308Z,60.70
2017-09-11T00:40:04.026Z,60.40
2017-09-11T00:42:31.773Z,60.50
2017-09-11T00:44:59.404Z,60.40
2017-09-11T00:47:27.022Z,60.60
2017-09-11T00:49:54.685Z,60.40
2017-09-11T00:52:22.332Z,60.20
2017-09-11T00:54:49.948Z,60.20
2017-09-11T00:57:17.614Z,60.40
2017-09-11T00:59:45.233Z,60.30
2017-09-11T01:02:12.889Z,60.10
2017-09-11T01:04:40.558Z,60.10
2017-09-11T01:07:08.953Z,61.60
2017-09-11T01:09:36.583Z,60.40
2017-09-11T01:12:04.328Z,60.30
2017-09-11T01:14:31.966Z,60.30
2017-09-11T01:16:59.603Z,60.20
2017-09-11T01:19:28.052Z,60.00
2017-09-11T01:21:55.795Z,59.90
2017-09-11T01:24:23.406Z,60.20
2017-09-11T01:26:51.835Z,60.20
2017-09-11T01:29:19.507Z,60.20
2017-09-11T01:31:47.133Z,60.30
2017-09-11T01:34:14.806Z,60.10
2017-09-11T01:36:42.419Z,60.30
2017-09-11T01:39:10.818Z,60.10
2017-09-11T01:41:38.533Z,60.10
2017-09-11T01:44:06.288Z,60.00
2017-09-11T01:46:34.052Z,60.10
2017-09-11T01:49:01.691Z,60.20
2017-09-11T01:51:29.364Z,60.20
2017-09-11T01:53:57.072Z,59.90
2017-09-11T01:56:24.722Z,60.00
2017-09-11T01:58:52.502Z,60.70
2017-09-11T02:01:20.889Z,60.20
2017-09-11T02:03:49.425Z,60.00
2017-09-11T02:06:17.110Z,59.90
2017-09-11T02:08:44.780Z,60.00
2017-09-11T02:11:12.406Z,60.10
2017-09-11T02:13:40.061Z,60.20
2017-09-11T02:16:07.681Z,60.20
2017-09-11T02:18:36.214Z,60.20
2017-09-11T02:21:03.829Z,60.00
2017-09-11T02:23:32.208Z,59.90
2017-09-11T02:26:00.618Z,60.20
2017-09-11T02:28:28.232Z,60.00
2017-09-11T02:30:55.901Z,59.90
2017-09-11T02:33:24.359Z,60.00
2017-09-11T02:35:52.041Z,59.90
2017-09-11T02:38:20.502Z,60.10
2017-09-11T02:40:48.129Z,60.00
2017-09-11T02:43:15.781Z,60.10
2017-09-11T02:45:43.466Z,60.00
2017-09-11T02:48:11.121Z,59.90
2017-09-11T02:50:38.808Z,60.10
2017-09-11T02:53:06.465Z,60.00
2017-09-11T02:55:34.084Z,59.80
2017-09-11T02:58:01.753Z,59.90
2017-09-11T03:00:29.384Z,60.00
2017-09-11T03:02:57.916Z,59.80
2017-09-11T03:05:25.542Z,59.70
2017-09-11T03:07:53.190Z,59.80
2017-09-11T03:10:21.607Z,60.00
2017-09-11T03:12:49.261Z,59.90
2017-09-11T03:15:16.941Z,60.00
2017-09-11T03:17:44.553Z,59.90
2017-09-11T03:20:13.085Z,59.90
2017-09-11T03:22:40.784Z,59.90
2017-09-11T03:25:08.518Z,59.90
2017-09-11T03:27:36.132Z,59.90
2017-09-11T03:30:03.849Z,60.10
2017-09-11T03:32:31.604Z,60.20
2017-09-11T03:34:59.284Z,60.00
2017-09-11T03:37:26.924Z,60.20
2017-09-11T03:39:54.561Z,60.00
2017-09-11T03:42:22.203Z,60.00
2017-09-11T03:44:49.924Z,60.00
2017-09-11T03:47:17.574Z,60.10
2017-09-11T03:49:45.286Z,60.10
2017-09-11T03:52:12.944Z,60.00
2017-09-11T03:54:41.334Z,60.00
2017-09-11T03:57:08.983Z,59.80
2017-09-11T03:59:37.520Z,59.80
2017-09-11T04:02:05.154Z,59.60
2017-09-11T04:04:32.796Z,59.80
2017-09-11T04:07:00.427Z,59.60
2017-09-11T04:09:28.201Z,59.60
2017-09-11T04:11:56.609Z,59.80
2017-09-11T04:14:24.254Z,59.80
2017-09-11T04:16:52.716Z,59.70
2017-09-11T04:19:20.354Z,59.60
2017-09-11T04:21:48.043Z,59.80
2017-09-11T04:24:15.856Z,59.70
2017-09-11T04:26:43.644Z,59.80
2017-09-11T04:29:11.316Z,59.70
2017-09-11T04:31:38.982Z,59.80
2017-09-11T04:34:06.624Z,59.90
2017-09-11T04:36:34.308Z,59.70
2017-09-11T04:39:02.055Z,59.60
2017-09-11T04:41:29.691Z,59.90
2017-09-11T04:43:57.355Z,59.90
2017-09-11T04:46:25.080Z,59.80
2017-09-11T04:48:53.460Z,59.80
2017-09-11T04:51:21.109Z,59.80
2017-09-11T04:53:48.765Z,59.80
2017-09-11T04:56:16.607Z,59.80
2017-09-11T04:58:44.242Z,59.80
2017-09-11T05:01:11.951Z,59.80
2017-09-11T05:03:39.599Z,59.80
2017-09-11T05:06:07.358Z,59.80
2017-09-11T05:08:35.148Z,59.80
2017-09-11T05:11:02.781Z,60.10
2017-09-11T05:13:30.429Z,59.90
2017-09-11T05:15:58.060Z,60.20
2017-09-11T05:18:25.724Z,60.40
2017-09-11T05:20:53.742Z,60.70
2017-09-11T05:23:21.506Z,60.60
2017-09-11T05:25:49.267Z,60.80
2017-09-11T05:28:16.901Z,60.90
2017-09-11T05:30:44.574Z,60.80
2017-09-11T05:33:12.201Z,60.90
2017-09-11T05:35:40.579Z,60.90
2017-09-11T05:38:08.393Z,60.80
2017-09-11T05:40:36.078Z,60.80
2017-09-11T05:43:03.716Z,60.80
2017-09-11T05:45:31.481Z,60.90
2017-09-11T05:47:59.164Z,60.80
2017-09-11T05:50:28.244Z,61.00
2017-09-11T05:52:55.991Z,61.00
2017-09-11T05:55:23.633Z,61.30
2017-09-11T05:57:51.344Z,61.50
2017-09-11T06:00:19.008Z,61.50
2017-09-11T06:02:46.635Z,61.60
2017-09-11T06:05:14.273Z,61.60
2017-09-11T06:07:41.932Z,61.60
2017-09-11T06:10:09.665Z,61.90
2017-09-11T06:12:38.224Z,61.90
2017-09-11T06:15:05.988Z,61.70
2017-09-11T06:17:33.668Z,61.70
2017-09-11T06:20:01.296Z,61.90
2017-09-11T06:22:28.969Z,61.60
2017-09-11T06:24:56.583Z,61.70
2017-09-11T06:27:54.669Z,61.60
2017-09-11T06:30:22.285Z,61.60
2017-09-11T06:32:49.935Z,61.50
2017-09-11T06:35:17.545Z,61.50
2017-09-11T06:37:45.364Z,61.50
2017-09-11T06:40:13.143Z,61.60
2017-09-11T06:42:40.817Z,61.60
2017-09-11T06:45:08.516Z,61.70
2017-09-11T06:47:36.138Z,61.80
2017-09-11T06:50:03.780Z,61.70
2017-09-11T06:52:31.410Z,61.70
2017-09-11T06:54:59.194Z,61.80
2017-09-11T06:57:26.804Z,61.80
2017-09-11T06:59:55.206Z,61.90
2017-09-11T07:02:22.871Z,61.90
2017-09-11T07:04:50.535Z,61.90
2017-09-11T07:07:18.263Z,62.30
2017-09-11T07:09:46.673Z,62.30
2017-09-11T07:12:26.170Z,62.20
2017-09-11T07:14:53.811Z,62.50
2017-09-11T07:17:21.450Z,62.50
2017-09-11T07:19:49.122Z,62.30
2017-09-11T07:22:16.744Z,62.40
2017-09-11T07:24:44.411Z,62.30
2017-09-11T07:27:12.130Z,62.40
2017-09-11T07:29:39.759Z,62.50
2017-09-11T07:32:07.536Z,62.60
2017-09-11T07:34:35.300Z,62.50
2017-09-11T07:37:03.117Z,62.20
2017-09-11T07:39:31.581Z,62.50
2017-09-11T07:42:00.131Z,62.40
2017-09-11T07:44:27.773Z,62.20
2017-09-11T07:46:55.453Z,62.40
2017-09-11T07:49:23.071Z,62.40
2017-09-11T07:51:50.795Z,62.40
2017-09-11T07:54:19.213Z,62.50
2017-09-11T07:56:47.602Z,62.40
2017-09-11T07:59:15.317Z,62.20
2017-09-11T08:01:42.945Z,62.20
2017-09-11T08:04:10.575Z,62.30
2017-09-11T08:06:38.984Z,62.20
2017-09-11T08:09:06.629Z,62.20
2017-09-11T08:11:34.327Z,62.20
2017-09-11T08:14:01.949Z,62.20
2017-09-11T08:16:29.610Z,62.30
2017-09-11T08:18:57.360Z,62.40
2017-09-11T08:21:25.890Z,62.40
2017-09-11T08:23:53.662Z,62.40
2017-09-11T08:26:21.309Z,62.40
2017-09-11T08:28:48.976Z,62.40
2017-09-11T08:31:16.628Z,62.50
2017-09-11T08:33:44.300Z,62.50
2017-09-11T08:36:11.982Z,62.50
2017-09-11T08:38:39.635Z,62.50
2017-09-11T08:41:07.274Z,62.40
2017-09-11T08:43:35.052Z,62.60
2017-09-11T08:46:02.695Z,62.70
2017-09-11T08:48:30.354Z,62.50
2017-09-11T08:50:57.993Z,62.70
2017-09-11T08:53:25.628Z,62.80
2017-09-11T08:55:53.361Z,62.90
2017-09-11T08:58:21.123Z,62.80
2017-09-11T09:00:48.776Z,62.90
2017-09-11T09:03:16.526Z,62.80
2017-09-11T09:05:44.187Z,62.70
2017-09-11T09:08:11.907Z,62.60
2017-09-11T09:10:39.604Z,62.50
2017-09-11T09:13:07.448Z,62.40
2017-09-11T09:15:35.846Z,62.70
2017-09-11T09:18:03.544Z,62.60
2017-09-11T09:20:31.236Z,62.50
2017-09-11T09:22:58.893Z,62.50
2017-09-11T09:25:27.280Z,62.40
2017-09-11T09:27:55.028Z,62.50
2017-09-11T09:30:22.657Z,62.40
2017-09-11T09:32:50.443Z,62.20
2017-09-11T09:35:18.104Z,62.00
2017-09-11T09:37:45.788Z,62.00
2017-09-11T09:40:13.446Z,62.10
2017-09-11T09:42:42.577Z,61.70
2017-09-11T09:45:11.012Z,61.80
2017-09-11T09:47:38.664Z,61.60
2017-09-11T09:50:06.325Z,61.70
2017-09-11T09:52:33.958Z,61.90
2017-09-11T09:55:01.595Z,61.80
2017-09-11T09:57:30.017Z,61.90
2017-09-11T09:59:57.716Z,61.70
2017-09-11T10:02:26.140Z,61.70
2017-09-11T10:04:53.761Z,61.70
2017-09-11T10:07:21.398Z,61.70
2017-09-11T10:09:49.066Z,61.70
2017-09-11T10:12:16.747Z,61.50
2017-09-11T10:14:44.595Z,61.40
2017-09-11T10:17:12.363Z,61.10
2017-09-11T10:19:40.272Z,61.00
2017-09-11T10:22:08.205Z,61.00
2017-09-11T10:24:36.177Z,60.90
2017-09-11T10:27:03.984Z,60.80
2017-09-11T10:29:31.809Z,60.60
2017-09-11T10:31:59.603Z,60.50
2017-09-11T10:34:28.160Z,60.40
2017-09-11T10:36:56.009Z,60.30
2017-09-11T10:39:23.760Z,60.10
2017-09-11T10:41:51.533Z,60.00
2017-09-11T10:44:19.408Z,60.00
2017-09-11T10:46:47.188Z,59.80
2017-09-11T10:49:15.644Z,59.30
2017-09-11T10:51:43.415Z,59.60
2017-09-11T10:54:11.269Z,59.60
2017-09-11T10:56:39.013Z,59.50
2017-09-11T10:59:06.724Z,59.70
2017-09-11T11:01:34.563Z,59.50
2017-09-11T11:04:02.383Z,59.90
2017-09-11T11:06:30.207Z,61.00
2017-09-11T11:08:58.055Z,61.40
2017-09-11T11:11:25.731Z,61.10
2017-09-11T11:13:53.546Z,60.40
2017-09-11T11:16:21.269Z,60.10
2017-09-11T11:21:09.871Z,60.00
2017-09-11T11:23:38.727Z,60.20
2017-09-11T11:26:06.471Z,60.20
2017-09-11T11:28:34.252Z,60.10
2017-09-11T11:31:01.944Z,60.20
2017-09-11T11:33:30.435Z,60.20
2017-09-11T11:35:58.147Z,60.20
2017-09-11T11:38:25.950Z,60.00
2017-09-11T11:40:54.494Z,60.00
2017-09-11T11:43:22.306Z,59.80
2017-09-11T11:45:50.097Z,59.80
2017-09-11T11:48:17.881Z,59.80
2017-09-11T11:50:45.660Z,59.60
2017-09-11T11:53:13.433Z,59.60
2017-09-11T11:55:41.219Z,59.60
2017-09-11T11:58:09.637Z,59.50
2017-09-11T12:00:37.544Z,59.50
2017-09-11T12:03:05.401Z,59.60
2017-09-11T12:05:33.272Z,59.20
2017-09-11T12:08:00.899Z,59.10
2017-09-11T12:10:28.556Z,59.30
2017-09-11T12:12:56.182Z,59.60
2017-09-11T12:15:24.621Z,59.60
2017-09-11T12:17:52.272Z,59.50
2017-09-11T12:20:19.889Z,59.40
2017-09-11T12:22:48.320Z,58.70
2017-09-11T12:25:16.086Z,58.70
2017-09-11T12:27:43.714Z,58.80
2017-09-11T12:30:11.394Z,58.80
2017-09-11T12:32:39.086Z,58.80
2017-09-11T12:35:06.810Z,59.00
2017-09-11T12:37:34.473Z,58.50
2017-09-11T12:40:02.117Z,58.00
2017-09-11T12:42:29.740Z,58.60
2017-09-11T12:44:57.396Z,57.80
2017-09-11T12:47:25.012Z,57.80
2017-09-11T12:49:54.038Z,57.10
2017-09-11T12:52:21.719Z,56.70
2017-09-11T12:54:49.338Z,57.00
2017-09-11T12:57:16.976Z,56.70
2017-09-11T12:59:44.594Z,56.80
2017-09-11T13:02:12.255Z,57.20
2017-09-11T13:04:39.881Z,57.30
2017-09-11T13:07:07.565Z,56.50
2017-09-11T13:09:36.152Z,56.30
2017-09-11T13:12:03.815Z,56.50
2017-09-11T13:14:31.456Z,56.40
2017-09-11T13:16:59.174Z,55.50
2017-09-11T13:19:27.017Z,55.90
2017-09-11T13:21:54.813Z,56.50
2017-09-11T13:24:23.361Z,56.20
2017-09-11T13:26:51.023Z,56.20
2017-09-11T13:29:18.882Z,56.40
2017-09-11T13:31:46.662Z,56.40
2017-09-11T13:34:14.532Z,56.00
2017-09-11T13:36:42.302Z,55.90
2017-09-11T13:39:09.968Z,55.90
2017-09-11T13:41:37.623Z,55.40
2017-09-11T13:44:05.345Z,55.30
2017-09-11T13:46:33.009Z,54.20
2017-09-11T13:49:00.683Z,53.60
2017-09-11T13:51:28.344Z,53.80
2017-09-11T13:53:55.997Z,53.70
2017-09-11T13:56:23.644Z,53.00
2017-09-11T13:58:51.303Z,52.90
2017-09-11T14:01:18.962Z,53.00
2017-09-11T14:03:46.596Z,52.80
2017-09-11T14:06:15.056Z,53.20
2017-09-11T14:08:42.699Z,53.10
2017-09-11T14:11:10.418Z,52.80
2017-09-11T14:13:38.858Z,52.90
2017-09-11T14:16:06.481Z,52.80
2017-09-11T14:18:34.176Z,52.90
2017-09-11T14:21:02.031Z,53.20
2017-09-11T14:23:29.672Z,53.00
2017-09-11T14:25:57.387Z,53.00
2017-09-11T14:28:25.853Z,53.10
2017-09-11T14:30:53.512Z,53.10
2017-09-11T14:33:21.125Z,52.80
2017-09-11T14:35:48.790Z,52.80
2017-09-11T14:38:16.427Z,53.00
2017-09-11T14:40:44.965Z,52.20
2017-09-11T14:43:12.595Z,52.10
2017-09-11T14:45:40.240Z,52.10
2017-09-11T14:48:08.624Z,51.50
2017-09-11T14:50:37.047Z,51.60
2017-09-11T14:53:04.681Z,51.60
2017-09-11T14:55:32.305Z,51.40
2017-09-11T14:58:00.337Z,50.90
2017-09-11T15:00:27.958Z,51.00
2017-09-11T15:02:55.679Z,50.90
2017-09-11T15:05:23.337Z,51.30
2017-09-11T15:07:50.995Z,50.60
2017-09-11T15:10:18.653Z,50.60
2017-09-11T15:12:46.307Z,50.90
2017-09-11T15:15:13.995Z,50.50
2017-09-11T15:17:41.654Z,51.00
2017-09-11T15:20:09.287Z,50.90
2017-09-11T15:22:36.925Z,51.20
2017-09-11T15:25:04.629Z,51.50
2017-09-11T15:27:32.255Z,51.20
2017-09-11T15:29:59.937Z,51.60
2017-09-11T15:32:27.561Z,51.60
2017-09-11T15:34:55.967Z,51.90
2017-09-11T15:37:23.626Z,51.90
2017-09-11T15:39:51.409Z,51.20
2017-09-11T15:42:19.069Z,51.60
2017-09-11T15:44:46.837Z,51.80
2017-09-11T15:47:14.484Z,51.70
2017-09-11T15:49:42.103Z,52.00
2017-09-11T15:52:10.563Z,52.20
2017-09-11T15:54:38.183Z,52.10
2017-09-11T15:57:05.842Z,52.30
2017-09-11T15:59:33.489Z,51.80
2017-09-11T16:02:01.184Z,51.60
2017-09-11T16:04:29.774Z,51.80
2017-09-11T16:06:57.398Z,52.10
2017-09-11T16:09:25.065Z,51.80
2017-09-11T16:11:52.714Z,52.20
2017-09-11T16:14:20.494Z,52.20
2017-09-11T16:16:48.285Z,52.20
2017-09-11T16:19:15.933Z,52.20
2017-09-11T16:21:43.547Z,52.30
2017-09-11T16:24:11.972Z,52.20
2017-09-11T16:26:39.593Z,52.10
2017-09-11T16:29:08.110Z,52.70
2017-09-11T16:31:35.802Z,52.60
2017-09-11T16:34:03.675Z,52.50
2017-09-11T16:36:31.746Z,52.50
2017-09-11T16:38:59.607Z,52.60
2017-09-11T16:41:27.480Z,52.50
2017-09-11T16:43:55.957Z,52.90
2017-09-11T16:46:23.602Z,52.90
2017-09-11T16:48:51.248Z,52.80
2017-09-11T16:51:18.891Z,53.00
2017-09-11T16:53:46.557Z,53.20
2017-09-11T16:56:14.201Z,53.20
2017-09-11T16:58:42.624Z,53.30
2017-09-11T17:01:10.518Z,53.20
2017-09-11T17:03:38.307Z,53.40
2017-09-11T17:06:07.110Z,53.60
2017-09-11T17:08:34.840Z,53.50
2017-09-11T17:11:02.596Z,53.70
2017-09-11T17:13:30.239Z,54.10
2017-09-11T17:15:58.123Z,54.00
2017-09-11T17:18:26.096Z,54.00
2017-09-11T17:20:54.979Z,54.10
2017-09-11T17:23:23.483Z,54.20
2017-09-11T17:25:51.438Z,54.30
2017-09-11T17:28:19.663Z,54.50
2017-09-11T17:30:47.715Z,54.50
2017-09-11T17:33:16.020Z,54.60
2017-09-11T17:35:46.216Z,54.50
2017-09-11T17:38:14.355Z,54.60
2017-09-11T17:40:42.216Z,54.50
2017-09-11T17:43:09.843Z,54.50
2017-09-11T17:45:37.503Z,54.50
2017-09-11T17:48:05.124Z,54.30
2017-09-11T17:50:33.610Z,54.20
2017-09-11T17:53:02.011Z,54.50
2017-09-11T17:55:30.026Z,55.00
2017-09-11T17:57:57.903Z,54.20
2017-09-11T18:00:25.566Z,54.00
2017-09-11T18:02:53.184Z,54.20
2017-09-11T18:05:20.848Z,54.20
2017-09-11T18:07:48.547Z,54.60
2017-09-11T18:10:17.522Z,55.20
2017-09-11T18:12:45.204Z,55.20
2017-09-11T18:15:12.830Z,55.40
2017-09-11T18:17:40.491Z,55.50
2017-09-11T18:20:08.117Z,55.60
2017-09-11T18:22:36.767Z,55.60
2017-09-11T18:25:05.927Z,56.20
2017-09-11T18:27:34.296Z,55.60
2017-09-11T18:36:20.009Z,55.50
2017-09-11T18:38:48.655Z,55.80
2017-09-11T18:41:16.518Z,55.80
2017-09-11T18:43:44.395Z,55.50
2017-09-11T18:46:12.288Z,55.90
2017-09-11T18:48:40.738Z,55.90
2017-09-11T18:51:08.371Z,55.90
2017-09-11T18:53:36.030Z,55.90
2017-09-11T18:56:03.649Z,55.70
2017-09-11T18:58:32.077Z,55.90
2017-09-11T19:00:59.771Z,55.90
2017-09-11T19:03:27.439Z,55.80
2017-09-11T19:05:55.832Z,55.90
2017-09-11T19:08:24.280Z,55.90
2017-09-11T19:10:51.914Z,55.80
2017-09-11T19:13:19.574Z,56.50
2017-09-11T19:15:47.222Z,55.80
2017-09-11T19:18:14.943Z,56.00
2017-09-11T19:20:42.614Z,56.20
2017-09-11T19:23:11.042Z,55.60
2017-09-11T19:25:38.747Z,56.10
2017-09-11T19:28:06.485Z,56.30
2017-09-11T19:30:35.115Z,56.00
2017-09-11T19:33:04.536Z,56.20
2017-09-11T19:35:32.183Z,56.10
2017-09-11T19:38:00.616Z,56.20
2017-09-11T19:40:28.225Z,56.10
2017-09-11T19:42:56.660Z,56.20
2017-09-11T19:45:24.341Z,56.00
2017-09-11T19:47:51.976Z,56.40
2017-09-11T19:50:19.644Z,56.20
2017-09-11T19:52:47.283Z,56.20
2017-09-11T19:55:14.920Z,56.30
2017-09-11T19:57:43.367Z,56.20
2017-09-11T20:00:11.048Z,56.10
2017-09-11T20:02:39.446Z,56.10
2017-09-11T20:05:07.168Z,56.00
2017-09-11T20:07:34.831Z,55.90
2017-09-11T20:10:02.454Z,55.90
2017-09-11T20:12:30.105Z,55.80
2017-09-11T20:14:57.746Z,56.00
2017-09-11T20:17:26.166Z,56.00
2017-09-11T20:19:53.794Z,56.00
2017-09-11T20:22:22.213Z,56.00
2017-09-11T20:24:49.825Z,56.00
2017-09-11T20:27:18.241Z,56.00
2017-09-11T20:29:46.020Z,56.00
2017-09-11T20:32:13.656Z,56.00
2017-09-11T20:34:41.614Z,56.10
2017-09-11T20:37:09.265Z,56.10
2017-09-11T20:39:37.681Z,56.60
2017-09-11T20:42:05.306Z,56.60
2017-09-11T20:44:33.721Z,56.40
2017-09-11T20:47:01.354Z,56.30
2017-09-11T20:49:29.014Z,56.30
2017-09-11T20:51:56.678Z,56.60
2017-09-11T20:54:24.442Z,56.60
2017-09-11T20:56:52.258Z,56.30
2017-09-11T20:59:20.134Z,56.40
2017-09-11T21:01:47.996Z,56.40
2017-09-11T21:04:15.861Z,56.40
2017-09-11T21:06:43.731Z,56.50
2017-09-11T21:09:13.037Z,56.60
2017-09-11T21:11:40.705Z,56.60
2017-09-11T21:14:09.834Z,56.80
2017-09-11T21:16:37.471Z,56.80
2017-09-11T21:19:05.936Z,56.90
2017-09-11T21:21:33.553Z,56.80
2017-09-11T21:24:01.225Z,57.00
2017-09-11T21:26:28.856Z,57.10
2017-09-11T21:28:57.236Z,57.00
2017-09-11T21:31:24.942Z,56.90
2017-09-11T21:33:52.576Z,57.00
2017-09-11T21:36:20.239Z,57.00
2017-09-11T21:38:47.862Z,57.20
2017-09-11T21:41:15.502Z,57.20
2017-09-11T21:43:43.275Z,57.30
2017-09-11T21:46:10.930Z,57.30
2017-09-11T21:48:38.569Z,57.50
2017-09-11T21:51:06.237Z,57.50
2017-09-11T21:53:33.917Z,57.50
2017-09-11T21:56:01.658Z,57.60
2017-09-11T21:58:29.275Z,57.40
2017-09-11T22:00:57.680Z,57.30
2017-09-11T22:03:25.377Z,57.30
2017-09-11T22:05:53.038Z,57.30
2017-09-11T22:08:20.658Z,57.30
2017-09-11T22:10:48.452Z,57.50
2017-09-11T22:13:16.131Z,57.70
2017-09-11T22:15:43.979Z,57.80
2017-09-11T22:18:11.595Z,57.70
2017-09-11T22:20:39.993Z,57.70
2017-09-11T22:23:07.636Z,57.70
2017-09-11T22:25:36.162Z,57.90
2017-09-11T22:28:03.925Z,57.80
2017-09-11T22:30:31.564Z,57.90
2017-09-11T22:32:59.270Z,57.80
2017-09-11T22:35:26.928Z,58.00
2017-09-11T22:37:54.557Z,58.50
2017-09-11T22:40:22.231Z,57.90
2017-09-11T22:42:49.899Z,58.00
2017-09-11T22:45:17.534Z,58.00
2017-09-11T22:47:45.207Z,58.00
2017-09-11T22:50:12.825Z,58.00
2017-09-11T22:52:41.257Z,58.10
2017-09-11T22:55:08.881Z,58.00
2017-09-11T22:57:37.275Z,58.10
2017-09-11T23:00:04.992Z,58.10
2017-09-11T23:02:32.621Z,58.20
2017-09-11T23:05:00.277Z,58.20
2017-09-11T23:07:27.900Z,58.10
2017-09-11T23:09:56.277Z,58.40
2017-09-11T23:12:24.814Z,58.40
2017-09-11T23:14:52.442Z,58.20
2017-09-11T23:17:20.097Z,58.40
2017-09-11T23:19:47.744Z,58.40
2017-09-11T23:22:16.157Z,58.30
2017-09-11T23:24:43.853Z,58.30
2017-09-11T23:27:11.490Z,58.50
2017-09-11T23:29:39.144Z,58.50
2017-09-11T23:32:06.925Z,58.60
2017-09-11T23:34:34.596Z,58.50
2017-09-11T23:37:02.241Z,58.60
2017-09-11T23:39:29.863Z,58.50
2017-09-11T23:41:58.310Z,58.60
2017-09-11T23:44:25.971Z,58.50
2017-09-11T23:46:53.620Z,58.60
2017-09-11T23:49:21.241Z,58.60
2017-09-11T23:51:48.863Z,58.60
2017-09-11T23:54:17.293Z,58.60
2017-09-11T23:56:44.920Z,58.60
2017-09-11T23:59:13.359Z,58.90
